createdAt,value
2018-11-22T00:00:20.605Z,983.2
2018-11-22T00:01:22.122Z,983.2
2018-11-22T00:02:25.074Z,983.3
2018-11-22T00:03:26.564Z,983.2
2018-11-22T00:04:30.482Z,983.3
2018-11-22T00:05:32.205Z,983.3
2018-11-22T00:06:33.791Z,983.4
2018-11-22T00:07:37.508Z,983.3
2018-11-22T00:08:38.946Z,983.3
2018-11-22T00:09:42.864Z,983.2
2018-11-22T00:10:47.331Z,983.2
2018-11-22T00:11:48.801Z,983.2
2018-11-22T00:12:50.365Z,983.2
2018-11-22T00:13:51.798Z,983.3
2018-11-22T00:14:56.188Z,983.3
2018-11-22T00:15:57.665Z,983.3
2018-11-22T00:17:14.895Z,983.3
2018-11-22T00:18:16.325Z,983.3
2018-11-22T00:19:17.764Z,983.3
2018-11-22T00:20:21.938Z,983.2
2018-11-22T00:21:24.406Z,983.3
2018-11-22T00:22:26.100Z,983.3
2018-11-22T00:23:27.729Z,983.3
2018-11-22T00:24:29.407Z,983.3
2018-11-22T00:25:34.847Z,983.3
2018-11-22T00:26:36.205Z,983.3
2018-11-22T00:27:37.760Z,983.3
2018-11-22T00:28:39.121Z,983.2
2018-11-22T00:29:40.629Z,983.3
2018-11-22T00:30:41.937Z,983.3
2018-11-22T00:31:43.435Z,983.3
2018-11-22T00:32:45.167Z,983.4
2018-11-22T00:33:46.589Z,983.4
2018-11-22T00:34:48.098Z,983.3
2018-11-22T00:35:49.501Z,983.4
2018-11-22T00:36:50.901Z,983.3
2018-11-22T00:37:52.302Z,983.4
2018-11-22T00:38:53.747Z,983.3
2018-11-22T00:39:55.194Z,983.4
2018-11-22T00:40:56.682Z,983.3
2018-11-22T00:41:58.235Z,983.4
2018-11-22T00:42:59.673Z,983.3
2018-11-22T00:44:01.126Z,983.3
2018-11-22T00:45:02.582Z,983.4
2018-11-22T00:46:06.259Z,983.4
2018-11-22T00:47:07.912Z,983.3
2018-11-22T00:48:12.428Z,983.4
2018-11-22T00:49:14.050Z,983.4
2018-11-22T00:50:15.604Z,983.5
2018-11-22T00:51:17.147Z,983.5
2018-11-22T00:52:18.533Z,983.4
2018-11-22T00:53:21.643Z,983.5
2018-11-22T00:54:23.516Z,983.4
2018-11-22T00:55:24.956Z,983.4
2018-11-22T00:56:26.507Z,983.4
2018-11-22T00:57:28.033Z,983.4
2018-11-22T00:58:29.492Z,983.3
2018-11-22T00:59:31.132Z,983.4
2018-11-22T01:00:32.453Z,983.4
2018-11-22T01:01:33.874Z,983.5
2018-11-22T01:02:35.252Z,983.4
2018-11-22T01:03:36.693Z,983.4
2018-11-22T01:04:38.203Z,983.4
2018-11-22T01:05:39.676Z,983.4
2018-11-22T01:06:41.189Z,983.4
2018-11-22T01:07:42.660Z,983.4
2018-11-22T01:08:44.133Z,983.4
2018-11-22T01:09:45.823Z,983.4
2018-11-22T01:10:47.252Z,983.4
2018-11-22T01:11:48.675Z,983.4
2018-11-22T01:12:50.133Z,983.4
2018-11-22T01:14:04.186Z,983.4
2018-11-22T01:15:05.721Z,983.5
2018-11-22T01:16:07.194Z,983.5
2018-11-22T01:17:08.723Z,983.5
2018-11-22T01:18:27.324Z,983.4
2018-11-22T01:19:28.829Z,983.4
2018-11-22T01:20:30.352Z,983.4
2018-11-22T01:21:34.404Z,983.4
2018-11-22T01:22:38.764Z,983.4
2018-11-22T01:23:40.170Z,983.4
2018-11-22T01:24:41.566Z,983.4
2018-11-22T01:25:43.190Z,983.4
2018-11-22T01:26:44.684Z,983.4
2018-11-22T01:27:46.181Z,983.3
2018-11-22T01:29:02.007Z,983.3
2018-11-22T01:30:03.447Z,983.3
2018-11-22T01:31:04.912Z,983.3
2018-11-22T01:32:13.025Z,983.3
2018-11-22T01:33:15.421Z,983.4
2018-11-22T01:34:16.832Z,983.3
2018-11-22T01:35:21.060Z,983.3
2018-11-22T01:36:22.685Z,983.1
2018-11-22T01:37:24.504Z,983.3
2018-11-22T01:38:25.846Z,983.4
2018-11-22T01:39:27.288Z,983.3
2018-11-22T01:40:28.654Z,983.4
2018-11-22T01:41:30.135Z,983.4
2018-11-22T01:42:31.600Z,983.4
2018-11-22T01:43:33.179Z,983.4
2018-11-22T01:44:34.705Z,983.4
2018-11-22T01:45:36.233Z,983.4
2018-11-22T01:46:37.799Z,983.4
2018-11-22T01:47:42.163Z,983.4
2018-11-22T01:48:43.626Z,983.4
2018-11-22T01:49:45.146Z,983.4
2018-11-22T01:50:46.619Z,983.4
2018-11-22T01:51:48.279Z,983.4
2018-11-22T01:52:49.694Z,983.4
2018-11-22T01:53:51.226Z,983.4
2018-11-22T01:54:52.687Z,983.5
2018-11-22T01:55:54.153Z,983.4
2018-11-22T01:56:55.875Z,983.4
2018-11-22T01:57:57.409Z,983.4
2018-11-22T01:58:59.017Z,983.4
2018-11-22T02:00:00.479Z,983.3
2018-11-22T02:01:04.058Z,983.4
2018-11-22T02:02:05.581Z,983.4
2018-11-22T02:03:08.434Z,983.4
2018-11-22T02:04:12.400Z,983.4
2018-11-22T02:05:19.100Z,983.4
2018-11-22T02:06:20.513Z,983.4
2018-11-22T02:07:25.372Z,983.3
2018-11-22T02:08:27.060Z,983.4
2018-11-22T02:09:28.468Z,983.4
2018-11-22T02:10:29.796Z,983.4
2018-11-22T02:11:31.201Z,983.4
2018-11-22T02:12:32.678Z,983.4
2018-11-22T02:13:34.030Z,983.5
2018-11-22T02:14:35.633Z,983.5
2018-11-22T02:15:37.106Z,983.5
2018-11-22T02:16:38.605Z,983.4
2018-11-22T02:17:40.127Z,983.4
2018-11-22T02:18:41.547Z,983.4
2018-11-22T02:19:43.019Z,983.4
2018-11-22T02:20:44.422Z,983.4
2018-11-22T02:21:45.887Z,983.4
2018-11-22T02:22:47.517Z,983.4
2018-11-22T02:23:48.993Z,983.4
2018-11-22T02:24:50.299Z,983.4
2018-11-22T02:25:51.658Z,983.3
2018-11-22T02:26:53.208Z,983.4
2018-11-22T02:27:54.727Z,983.4
2018-11-22T02:28:56.197Z,983.3
2018-11-22T02:29:59.707Z,983.3
2018-11-22T02:31:01.014Z,983.4
2018-11-22T02:32:02.447Z,983.3
2018-11-22T02:33:03.879Z,983.2
2018-11-22T02:34:07.912Z,983.3
2018-11-22T02:35:09.306Z,983.3
2018-11-22T02:36:10.638Z,983.2
2018-11-22T02:37:12.152Z,983.3
2018-11-22T02:38:13.694Z,983.2
2018-11-22T02:39:15.181Z,983.2
2018-11-22T02:40:16.524Z,983.2
2018-11-22T02:41:18.048Z,983.2
2018-11-22T02:42:19.510Z,983.2
2018-11-22T02:43:21.138Z,983.2
2018-11-22T02:44:22.701Z,983.2
2018-11-22T02:45:24.120Z,983.2
2018-11-22T02:46:25.508Z,983.3
2018-11-22T02:47:26.956Z,983.2
2018-11-22T02:48:28.555Z,983.2
2018-11-22T02:49:30.006Z,983.2
2018-11-22T02:50:31.433Z,983.3
2018-11-22T02:51:35.752Z,983.3
2018-11-22T02:52:37.271Z,983.2
2018-11-22T02:53:39.111Z,983.3
2018-11-22T02:54:40.584Z,983.2
2018-11-22T02:55:42.223Z,983.3
2018-11-22T02:56:43.811Z,983.3
2018-11-22T02:57:45.160Z,983.2
2018-11-22T02:58:46.754Z,983.3
2018-11-22T02:59:48.189Z,983.3
2018-11-22T03:00:52.419Z,983.4
2018-11-22T03:01:56.314Z,983.4
2018-11-22T03:02:57.838Z,983.4
2018-11-22T03:04:01.840Z,983.4
2018-11-22T03:05:03.471Z,983.4
2018-11-22T03:06:05.114Z,983.3
2018-11-22T03:07:06.496Z,983.4
2018-11-22T03:08:10.051Z,983.3
2018-11-22T03:09:11.613Z,983.2
2018-11-22T03:10:13.260Z,983.4
2018-11-22T03:11:22.934Z,983.3
2018-11-22T03:12:24.518Z,983.4
2018-11-22T03:13:25.962Z,983.3
2018-11-22T03:14:29.825Z,983.3
2018-11-22T03:15:31.290Z,983.3
2018-11-22T03:16:32.930Z,983.3
2018-11-22T03:17:34.351Z,983.1
2018-11-22T03:18:35.704Z,983.2
2018-11-22T03:19:38.011Z,983.1
2018-11-22T03:20:45.271Z,983.2
2018-11-22T03:21:47.219Z,983.2
2018-11-22T03:22:48.639Z,983.2
2018-11-22T03:23:50.570Z,983.2
2018-11-22T03:24:52.048Z,983.1
2018-11-22T03:25:54.783Z,983.2
2018-11-22T03:26:56.291Z,983.2
2018-11-22T03:27:58.193Z,983.1
2018-11-22T03:28:59.738Z,983.2
2018-11-22T03:30:01.312Z,983.2
2018-11-22T03:31:02.762Z,983.3
2018-11-22T03:32:04.281Z,983.2
2018-11-22T03:33:05.740Z,983.2
2018-11-22T03:34:07.089Z,983.2
2018-11-22T03:35:08.480Z,983.2
2018-11-22T03:36:09.921Z,983.2
2018-11-22T03:37:11.413Z,983.2
2018-11-22T03:38:12.803Z,983.3
2018-11-22T03:39:17.051Z,983.2
2018-11-22T03:40:18.665Z,983.2
2018-11-22T03:41:20.028Z,983.1
2018-11-22T03:42:21.485Z,983.2
2018-11-22T03:43:22.926Z,983.2
2018-11-22T03:44:24.774Z,983.2
2018-11-22T03:45:26.318Z,983.2
2018-11-22T03:46:34.947Z,982.8
2018-11-22T03:47:36.410Z,983.1
2018-11-22T03:48:37.820Z,983.1
2018-11-22T03:49:39.391Z,983.1
2018-11-22T03:50:40.905Z,983.1
2018-11-22T03:51:42.340Z,983.1
2018-11-22T03:52:43.884Z,983.1
2018-11-22T03:53:45.563Z,983.1
2018-11-22T03:54:46.901Z,983.1
2018-11-22T03:55:48.375Z,983.1
2018-11-22T03:56:49.778Z,983
2018-11-22T03:57:51.180Z,983.1
2018-11-22T03:58:52.608Z,983
2018-11-22T03:59:57.412Z,983.1
2018-11-22T04:00:58.864Z,983.1
2018-11-22T04:02:00.272Z,983
2018-11-22T04:03:01.597Z,983
2018-11-22T04:04:05.452Z,983
2018-11-22T04:05:08.218Z,983.1
2018-11-22T04:06:09.922Z,983.1
2018-11-22T04:07:11.391Z,983.1
2018-11-22T04:08:12.769Z,982.9
2018-11-22T04:09:14.125Z,983.1
2018-11-22T04:10:15.595Z,983.1
2018-11-22T04:11:17.329Z,983.1
2018-11-22T04:12:18.809Z,983.1
2018-11-22T04:13:20.249Z,983.1
2018-11-22T04:14:21.779Z,983.1
2018-11-22T04:15:23.343Z,983.1
2018-11-22T04:16:24.874Z,983.2
2018-11-22T04:17:26.266Z,983.1
2018-11-22T04:18:27.651Z,983.1
2018-11-22T04:19:29.108Z,983.1
2018-11-22T04:20:30.522Z,983.1
2018-11-22T04:21:32.011Z,983.1
2018-11-22T04:22:33.389Z,983.1
2018-11-22T04:23:34.817Z,982.9
2018-11-22T04:24:36.205Z,983.1
2018-11-22T04:25:37.605Z,983.1
2018-11-22T04:26:39.095Z,983.1
2018-11-22T04:27:44.775Z,983.1
2018-11-22T04:28:46.711Z,983.1
2018-11-22T04:29:48.255Z,983.2
2018-11-22T04:30:49.551Z,983.2
2018-11-22T04:31:51.167Z,983.1
2018-11-22T04:32:52.553Z,983.1
2018-11-22T04:33:53.954Z,983.1
2018-11-22T04:34:55.421Z,983
2018-11-22T04:35:56.830Z,983.1
2018-11-22T04:36:58.335Z,983.2
2018-11-22T04:37:59.685Z,983.2
2018-11-22T04:39:01.105Z,983.2
2018-11-22T04:40:02.470Z,983.1
2018-11-22T04:41:03.858Z,983.1
2018-11-22T04:43:19.171Z,983.2
2018-11-22T04:44:20.518Z,983.1
2018-11-22T04:45:22.002Z,983.1
2018-11-22T04:46:23.369Z,983.2
2018-11-22T04:47:24.733Z,983.2
2018-11-22T04:48:26.226Z,983.2
2018-11-22T04:49:27.704Z,983.2
2018-11-22T04:50:29.071Z,983.3
2018-11-22T04:51:30.522Z,983.3
2018-11-22T04:52:34.423Z,983.3
2018-11-22T04:53:35.889Z,983.2
2018-11-22T04:54:37.320Z,983
2018-11-22T04:55:38.706Z,983.2
2018-11-22T04:56:42.175Z,983.2
2018-11-22T04:57:43.493Z,983.2
2018-11-22T04:58:44.961Z,983.3
2018-11-22T04:59:46.340Z,983.3
2018-11-22T05:00:47.758Z,983.2
2018-11-22T05:01:49.237Z,983.2
2018-11-22T05:02:50.694Z,983.2
2018-11-22T05:03:52.086Z,983.2
2018-11-22T05:04:55.489Z,983.2
2018-11-22T05:05:56.844Z,983.2
2018-11-22T05:06:58.300Z,983.2
2018-11-22T05:07:59.621Z,983.3
2018-11-22T05:09:01.037Z,983.3
2018-11-22T05:10:02.477Z,983.3
2018-11-22T05:11:03.954Z,983.3
2018-11-22T05:12:06.128Z,983.3
2018-11-22T05:13:07.537Z,983.2
2018-11-22T05:14:08.965Z,983.2
2018-11-22T05:15:13.524Z,983.3
2018-11-22T05:16:14.847Z,983.2
2018-11-22T05:17:16.246Z,983.2
2018-11-22T05:18:17.607Z,983.2
2018-11-22T05:19:19.045Z,983.3
2018-11-22T05:20:20.464Z,983
2018-11-22T05:21:24.206Z,983.3
2018-11-22T05:22:28.674Z,983.2
2018-11-22T05:23:30.458Z,983.2
2018-11-22T05:24:31.614Z,983.3
2018-11-22T05:25:36.165Z,983.3
2018-11-22T05:26:37.481Z,983.2
2018-11-22T05:27:38.905Z,983.2
2018-11-22T05:28:40.255Z,983.2
2018-11-22T05:29:41.665Z,983.2
2018-11-22T05:30:42.984Z,983.2
2018-11-22T05:31:44.434Z,983.2
2018-11-22T05:32:45.839Z,983.2
2018-11-22T05:33:47.217Z,983
2018-11-22T05:34:48.707Z,983.3
2018-11-22T05:35:52.906Z,983.2
2018-11-22T05:36:54.399Z,983.3
2018-11-22T05:37:55.775Z,983.3
2018-11-22T05:38:57.247Z,983.2
2018-11-22T05:39:58.572Z,983.3
2018-11-22T05:40:59.959Z,983.3
2018-11-22T05:42:01.351Z,983.3
2018-11-22T05:43:02.755Z,983.3
2018-11-22T05:44:04.949Z,983.1
2018-11-22T05:45:06.302Z,983.2
2018-11-22T05:46:07.669Z,983.3
2018-11-22T05:47:09.007Z,983.3
2018-11-22T05:48:10.441Z,983.3
2018-11-22T05:49:14.092Z,983.3
2018-11-22T05:50:15.482Z,983.3
2018-11-22T05:51:16.938Z,983.3
2018-11-22T05:52:18.293Z,983.4
2018-11-22T05:53:19.721Z,983.4
2018-11-22T05:54:21.067Z,983.1
2018-11-22T05:55:22.687Z,983.4
2018-11-22T05:56:26.496Z,983.3
2018-11-22T05:57:27.872Z,983.3
2018-11-22T05:58:31.495Z,983.3
2018-11-22T05:59:34.220Z,983.3
2018-11-22T06:00:35.635Z,983.3
2018-11-22T06:01:37.046Z,983.3
2018-11-22T06:02:38.415Z,983.3
2018-11-22T06:03:39.778Z,983.2
2018-11-22T06:04:41.157Z,983.2
2018-11-22T06:05:42.510Z,983.3
2018-11-22T06:06:43.846Z,983.3
2018-11-22T06:07:47.983Z,983.3
2018-11-22T06:08:49.437Z,983.3
2018-11-22T06:09:50.758Z,983.3
2018-11-22T06:10:52.160Z,983.2
2018-11-22T06:11:53.482Z,983.2
2018-11-22T06:12:54.889Z,983.2
2018-11-22T06:14:00.897Z,983.3
2018-11-22T06:15:02.303Z,983.2
2018-11-22T06:16:04.890Z,983.3
2018-11-22T06:17:06.249Z,983.3
2018-11-22T06:18:11.797Z,983.3
2018-11-22T06:19:13.157Z,983.3
2018-11-22T06:20:14.471Z,983.3
2018-11-22T06:21:15.823Z,983.3
2018-11-22T06:22:17.123Z,983.3
2018-11-22T06:23:18.691Z,983.2
2018-11-22T06:24:20.342Z,983.3
2018-11-22T06:25:21.639Z,983.3
2018-11-22T06:26:29.249Z,983.1
2018-11-22T06:27:30.781Z,983.3
2018-11-22T06:28:32.155Z,983.3
2018-11-22T06:29:39.399Z,983.3
2018-11-22T06:30:40.948Z,983.2
2018-11-22T06:31:42.251Z,983.3
2018-11-22T06:32:43.612Z,983.3
2018-11-22T06:33:47.072Z,983.3
2018-11-22T06:34:50.108Z,983.3
2018-11-22T06:35:51.402Z,983.3
2018-11-22T06:36:52.811Z,983.3
2018-11-22T06:37:56.996Z,983.3
2018-11-22T06:38:58.296Z,983.3
2018-11-22T06:39:59.629Z,983.3
2018-11-22T06:41:00.976Z,983.3
2018-11-22T06:42:06.112Z,983.4
2018-11-22T06:43:10.256Z,983.4
2018-11-22T06:44:11.570Z,983.5
2018-11-22T06:45:13.085Z,983.5
2018-11-22T06:46:14.359Z,983.5
2018-11-22T06:47:15.769Z,983.5
2018-11-22T06:48:17.119Z,983.5
2018-11-22T06:49:18.489Z,983.4
2018-11-22T06:50:24.610Z,983.4
2018-11-22T06:51:28.509Z,983.5
2018-11-22T06:52:34.139Z,983.6
2018-11-22T06:53:36.760Z,983.5
2018-11-22T06:54:38.120Z,983.5
2018-11-22T06:55:39.487Z,983.6
2018-11-22T06:56:40.812Z,983.5
2018-11-22T06:57:42.282Z,983.5
2018-11-22T06:58:43.970Z,983.5
2018-11-22T06:59:45.413Z,983.5
2018-11-22T07:00:46.777Z,983.5
2018-11-22T07:01:51.140Z,983.6
2018-11-22T07:02:52.505Z,983.5
2018-11-22T07:03:55.760Z,983.3
2018-11-22T07:04:57.292Z,983.6
2018-11-22T07:05:58.595Z,983.5
2018-11-22T07:06:59.910Z,983.5
2018-11-22T07:08:01.301Z,983.5
2018-11-22T07:09:05.431Z,983.5
2018-11-22T07:10:06.798Z,983.5
2018-11-22T07:11:11.483Z,983.4
2018-11-22T07:12:15.649Z,983.5
2018-11-22T07:13:18.783Z,983.5
2018-11-22T07:14:20.049Z,983.5
2018-11-22T07:15:21.284Z,983.5
2018-11-22T07:16:22.762Z,983.6
2018-11-22T07:17:24.329Z,983.6
2018-11-22T07:18:25.723Z,983.6
2018-11-22T07:19:27.137Z,983.6
2018-11-22T07:20:28.472Z,983.6
2018-11-22T07:21:29.771Z,983.5
2018-11-22T07:22:31.101Z,983.7
2018-11-22T07:23:33.512Z,983.6
2018-11-22T07:24:34.862Z,983.6
2018-11-22T07:25:36.189Z,983.7
2018-11-22T07:26:37.476Z,983.6
2018-11-22T07:27:39.281Z,983.6
2018-11-22T07:28:40.871Z,983.6
2018-11-22T07:29:42.262Z,983.7
2018-11-22T07:30:43.591Z,983.7
2018-11-22T07:31:47.102Z,983.7
2018-11-22T07:32:51.308Z,983.7
2018-11-22T07:33:52.903Z,983.7
2018-11-22T07:34:57.660Z,983.7
2018-11-22T07:35:59.720Z,983.6
2018-11-22T07:37:01.197Z,983.7
2018-11-22T07:38:02.786Z,983.5
2018-11-22T07:39:07.142Z,983.7
2018-11-22T07:40:08.640Z,983.7
2018-11-22T07:41:09.901Z,983.7
2018-11-22T07:42:18.312Z,983.6
2018-11-22T07:43:21.818Z,983.7
2018-11-22T07:44:23.201Z,983.8
2018-11-22T07:45:24.663Z,983.7
2018-11-22T07:46:26.161Z,983.7
2018-11-22T07:47:27.547Z,983.7
2018-11-22T07:48:28.853Z,983.7
2018-11-22T07:49:34.742Z,983.7
2018-11-22T07:50:38.905Z,983.6
2018-11-22T07:51:40.238Z,983.7
2018-11-22T07:52:49.916Z,983.7
2018-11-22T07:53:50.503Z,983.7
2018-11-22T07:54:52.144Z,983.7
2018-11-22T07:55:53.476Z,983.7
2018-11-22T07:56:58.706Z,983.7
2018-11-22T07:58:00.084Z,983.7
2018-11-22T07:59:01.451Z,983.8
2018-11-22T08:00:02.896Z,983.7
2018-11-22T08:01:04.315Z,983.8
2018-11-22T08:02:05.682Z,983.8
2018-11-22T08:03:06.937Z,983.6
2018-11-22T08:04:08.647Z,983.8
2018-11-22T08:05:10.084Z,983.8
2018-11-22T08:06:14.468Z,983.8
2018-11-22T08:07:15.774Z,983.8
2018-11-22T08:08:19.773Z,983.8
2018-11-22T08:09:21.116Z,983.8
2018-11-22T08:10:25.473Z,983.8
2018-11-22T08:11:29.351Z,983.8
2018-11-22T08:12:37.468Z,983.8
2018-11-22T08:13:41.787Z,983.9
2018-11-22T08:14:45.424Z,983.9
2018-11-22T08:15:49.255Z,983.8
2018-11-22T08:16:50.634Z,983.8
2018-11-22T08:17:54.180Z,983.7
2018-11-22T08:18:55.503Z,983.8
2018-11-22T08:19:56.837Z,983.7
2018-11-22T08:21:04.822Z,983.8
2018-11-22T08:22:07.651Z,983.9
2018-11-22T08:23:08.998Z,983.9
2018-11-22T08:24:10.456Z,983.8
2018-11-22T08:25:14.616Z,983.6
2018-11-22T08:26:17.915Z,983.8
2018-11-22T08:27:22.422Z,983.9
2018-11-22T08:28:26.753Z,983.7
2018-11-22T08:29:30.331Z,983.7
2018-11-22T08:30:36.604Z,983.8
2018-11-22T08:31:39.330Z,983.8
2018-11-22T08:32:40.876Z,983.9
2018-11-22T08:33:42.186Z,983.9
2018-11-22T08:34:43.453Z,983.9
2018-11-22T08:35:47.037Z,983.9
2018-11-22T08:36:48.356Z,983.9
2018-11-22T08:37:49.659Z,983.8
2018-11-22T08:38:53.503Z,983.8
2018-11-22T08:39:54.844Z,983.8
2018-11-22T08:40:56.166Z,983.8
2018-11-22T08:42:00.507Z,983.9
2018-11-22T08:43:03.963Z,983.9
2018-11-22T08:44:05.266Z,984
2018-11-22T08:45:06.584Z,983.9
2018-11-22T08:46:07.879Z,983.8
2018-11-22T08:47:12.173Z,983.8
2018-11-22T08:48:10.609Z,983.9
2018-11-22T08:49:12.161Z,983.8
2018-11-22T08:50:13.445Z,983.9
2018-11-22T08:51:14.755Z,983.9
2018-11-22T08:52:16.145Z,984
2018-11-22T08:53:17.479Z,983.9
2018-11-22T08:54:18.785Z,983.9
2018-11-22T08:55:23.211Z,984
2018-11-22T08:56:24.512Z,984
2018-11-22T08:57:25.930Z,983.9
2018-11-22T08:58:27.275Z,983.8
2018-11-22T08:59:28.572Z,983.7
2018-11-22T09:00:29.873Z,983.8
2018-11-22T09:01:31.248Z,983.9
2018-11-22T09:02:32.818Z,983.8
2018-11-22T09:03:34.169Z,983.9
2018-11-22T09:04:35.700Z,983.7
2018-11-22T09:05:40.114Z,983.8
2018-11-22T09:06:41.653Z,984
2018-11-22T09:07:43.084Z,984
2018-11-22T09:08:45.264Z,983.9
2018-11-22T09:09:48.480Z,983.7
2018-11-22T09:10:49.945Z,984
2018-11-22T09:11:51.363Z,983.7
2018-11-22T09:12:52.831Z,983.9
2018-11-22T09:13:54.612Z,983.7
2018-11-22T09:14:56.126Z,983.9
2018-11-22T09:15:59.057Z,983.9
2018-11-22T09:17:00.438Z,983.9
2018-11-22T09:18:02.102Z,984
2018-11-22T09:19:03.530Z,984
2018-11-22T09:20:05.039Z,984
2018-11-22T09:21:06.356Z,984
2018-11-22T09:22:07.695Z,983.8
2018-11-22T09:23:09.387Z,984.1
2018-11-22T09:24:10.776Z,984
2018-11-22T09:25:12.206Z,983.8
2018-11-22T09:26:13.599Z,983.8
2018-11-22T09:27:17.185Z,984
2018-11-22T09:28:19.779Z,984
2018-11-22T09:29:21.168Z,984
2018-11-22T09:30:22.535Z,984.1
2018-11-22T09:31:23.903Z,984.1
2018-11-22T09:32:26.283Z,984
2018-11-22T09:33:30.230Z,983.8
2018-11-22T09:34:31.722Z,984.1
2018-11-22T09:35:33.288Z,984
2018-11-22T09:36:34.833Z,984.1
2018-11-22T09:37:36.187Z,984.1
2018-11-22T09:38:37.633Z,984.1
2018-11-22T09:39:41.506Z,984.1
2018-11-22T09:40:42.919Z,984
2018-11-22T09:41:45.702Z,984.1
2018-11-22T09:42:49.982Z,984
2018-11-22T09:43:52.392Z,984.1
2018-11-22T09:44:53.798Z,984.1
2018-11-22T09:45:56.219Z,984.1
2018-11-22T09:46:57.654Z,984.1
2018-11-22T09:48:01.388Z,984.1
2018-11-22T09:49:05.247Z,984.1
2018-11-22T09:50:06.637Z,984.1
2018-11-22T09:51:08.049Z,984.2
2018-11-22T09:52:09.416Z,984.1
2018-11-22T09:53:13.299Z,984
2018-11-22T09:54:14.717Z,983.9
2018-11-22T09:55:18.958Z,984.1
2018-11-22T09:56:22.705Z,984
2018-11-22T09:57:24.116Z,984.1
2018-11-22T09:58:25.486Z,984.1
2018-11-22T09:59:27.439Z,984.1
2018-11-22T10:00:28.894Z,984.1
2018-11-22T10:01:33.468Z,984.1
2018-11-22T10:02:34.828Z,984.1
2018-11-22T10:03:38.940Z,984.1
2018-11-22T10:04:42.830Z,984
2018-11-22T10:05:44.857Z,984
2018-11-22T10:06:46.276Z,984.1
2018-11-22T10:07:47.879Z,983.9
2018-11-22T10:08:49.219Z,984
2018-11-22T10:09:50.688Z,984.1
2018-11-22T10:10:52.085Z,984.1
2018-11-22T10:11:53.560Z,984
2018-11-22T10:12:59.548Z,984.1
2018-11-22T10:14:02.501Z,984
2018-11-22T10:15:04.022Z,983.9
2018-11-22T10:16:05.453Z,984.1
2018-11-22T10:17:09.170Z,984
2018-11-22T10:18:10.619Z,984
2018-11-22T10:19:13.702Z,984.1
2018-11-22T10:20:15.335Z,984.1
2018-11-22T10:21:17.963Z,984
2018-11-22T10:22:19.449Z,984
2018-11-22T10:23:20.863Z,984
2018-11-22T10:24:22.552Z,984.1
2018-11-22T10:25:26.473Z,984.1
2018-11-22T10:26:27.876Z,984.1
2018-11-22T10:27:32.293Z,984.1
2018-11-22T10:28:33.768Z,984
2018-11-22T10:29:35.168Z,983.8
2018-11-22T10:30:36.552Z,984
2018-11-22T10:31:38.094Z,984.1
2018-11-22T10:32:39.535Z,984.1
2018-11-22T10:33:48.215Z,984.1
2018-11-22T10:34:49.606Z,984.1
2018-11-22T10:35:51.067Z,984.1
2018-11-22T10:36:52.447Z,984.1
2018-11-22T10:37:59.128Z,984.1
2018-11-22T10:39:00.736Z,984.1
2018-11-22T10:40:04.448Z,984
2018-11-22T10:41:05.968Z,984
2018-11-22T10:42:07.448Z,984.1
2018-11-22T10:43:08.717Z,984.1
2018-11-22T10:44:10.119Z,984.1
2018-11-22T10:45:14.250Z,984.1
2018-11-22T10:46:15.747Z,984.1
2018-11-22T10:47:21.645Z,984.1
2018-11-22T10:48:23.080Z,984
2018-11-22T10:49:24.531Z,984
2018-11-22T10:50:25.959Z,984.1
2018-11-22T10:51:27.421Z,984
2018-11-22T10:52:28.943Z,984
2018-11-22T10:53:31.671Z,984.1
2018-11-22T10:54:33.397Z,984.2
2018-11-22T10:55:44.115Z,984.1
2018-11-22T10:56:45.772Z,983.9
2018-11-22T10:57:53.758Z,984.1
2018-11-22T10:58:55.640Z,984.1
2018-11-22T10:59:57.252Z,984.1
2018-11-22T11:00:59.953Z,984
2018-11-22T11:02:04.251Z,984.1
2018-11-22T11:03:05.753Z,984.1
2018-11-22T11:04:11.292Z,984.1
2018-11-22T11:05:12.636Z,984.2
2018-11-22T11:06:15.601Z,984.1
2018-11-22T11:07:17.816Z,984.1
2018-11-22T11:08:24.833Z,984.2
2018-11-22T11:09:29.018Z,984.2
2018-11-22T11:10:30.418Z,984.2
2018-11-22T11:11:34.453Z,984.1
2018-11-22T11:12:36.391Z,983.8
2018-11-22T11:13:37.804Z,984.2
2018-11-22T11:14:42.297Z,984.2
2018-11-22T11:15:49.171Z,984.2
2018-11-22T11:16:53.661Z,984.2
2018-11-22T11:17:55.164Z,984.2
2018-11-22T11:18:56.640Z,984.2
2018-11-22T11:20:00.796Z,984.2
2018-11-22T11:21:02.213Z,984.1
2018-11-22T11:22:04.857Z,984.2
2018-11-22T11:23:06.313Z,984.2
2018-11-22T11:24:07.721Z,984.2
2018-11-22T11:25:14.680Z,984.3
2018-11-22T11:26:20.425Z,984.3
2018-11-22T11:27:21.803Z,984.2
2018-11-22T11:28:24.209Z,984.2
2018-11-22T11:29:25.609Z,983.9
2018-11-22T11:30:30.300Z,984.2
2018-11-22T11:31:31.738Z,984.2
2018-11-22T11:32:35.538Z,984.3
2018-11-22T11:33:41.245Z,984.2
2018-11-22T11:34:44.830Z,984.3
2018-11-22T11:35:46.241Z,984.2
2018-11-22T11:36:48.093Z,984.3
2018-11-22T11:37:50.455Z,984.3
2018-11-22T11:38:54.448Z,984.3
2018-11-22T11:40:01.461Z,984.3
2018-11-22T11:41:05.115Z,984.2
2018-11-22T11:42:06.696Z,984.2
2018-11-22T11:43:08.121Z,984.2
2018-11-22T11:44:12.474Z,984.3
2018-11-22T11:45:16.663Z,984.2
2018-11-22T11:46:33.524Z,984.1
2018-11-22T11:47:34.947Z,984.2
2018-11-22T11:48:36.354Z,984.1
2018-11-22T11:49:40.236Z,984.2
2018-11-22T11:52:05.920Z,984.2
2018-11-22T11:53:13.258Z,984.1
2018-11-22T11:54:16.929Z,984
2018-11-22T11:55:20.655Z,984.1
2018-11-22T11:56:22.085Z,984
2018-11-22T11:57:23.485Z,984
2018-11-22T11:58:24.886Z,984
2018-11-22T11:59:28.496Z,984
2018-11-22T12:00:32.091Z,984
2018-11-22T12:01:36.309Z,984.1
2018-11-22T12:02:37.625Z,984
2018-11-22T12:03:38.926Z,984
2018-11-22T12:04:45.118Z,984
2018-11-22T12:05:46.535Z,984
2018-11-22T12:06:50.256Z,983.9
2018-11-22T12:07:51.671Z,983.9
2018-11-22T12:08:53.699Z,984
2018-11-22T12:09:57.155Z,983.9
2018-11-22T12:10:59.309Z,983.9
2018-11-22T12:12:03.097Z,983.8
2018-11-22T12:13:06.730Z,983.9
2018-11-22T12:14:13.570Z,983.9
2018-11-22T12:15:17.117Z,983.9
2018-11-22T12:16:22.533Z,984
2018-11-22T12:17:23.834Z,983.9
2018-11-22T12:18:39.736Z,983.8
2018-11-22T12:19:45.266Z,983.9
2018-11-22T12:20:47.896Z,983.9
2018-11-22T12:21:52.282Z,983.9
2018-11-22T12:22:58.718Z,983.9
2018-11-22T12:24:04.976Z,983.9
2018-11-22T12:25:20.579Z,983.8
2018-11-22T12:26:27.446Z,983.9
2018-11-22T12:27:43.133Z,983.9
2018-11-22T12:28:47.679Z,983.7
2018-11-22T12:30:01.957Z,983.9
2018-11-22T12:31:20.752Z,983.8
2018-11-22T12:32:24.833Z,983.9
2018-11-22T12:33:26.668Z,983.9
2018-11-22T12:34:27.993Z,983.9
2018-11-22T12:35:32.297Z,983.9
2018-11-22T12:36:33.588Z,983.9
2018-11-22T12:37:34.887Z,983.9
2018-11-22T12:38:39.482Z,983.9
2018-11-22T12:39:40.814Z,983.9
2018-11-22T12:40:42.168Z,983.9
2018-11-22T12:41:44.842Z,983.9
2018-11-22T12:42:46.341Z,983.9
2018-11-22T12:43:47.725Z,983.9
2018-11-22T12:45:00.227Z,983.9
2018-11-22T12:46:01.614Z,983.9
2018-11-22T12:47:03.012Z,983.9
2018-11-22T12:48:06.940Z,983.9
2018-11-22T12:49:12.454Z,983.8
2018-11-22T12:50:13.932Z,983.9
2018-11-22T12:51:15.336Z,983.9
2018-11-22T12:52:16.755Z,983.5
2018-11-22T12:53:19.663Z,983.8
2018-11-22T12:54:21.253Z,983.8
2018-11-22T12:55:22.735Z,983.9
2018-11-22T12:56:27.285Z,983.8
2018-11-22T12:57:29.208Z,983.9
2018-11-22T12:58:32.679Z,983.8
2018-11-22T12:59:36.970Z,983.8
2018-11-22T13:00:38.690Z,983.8
2018-11-22T13:01:40.362Z,983.8
2018-11-22T13:02:42.440Z,983.9
2018-11-22T13:03:51.756Z,983.9
2018-11-22T13:04:53.114Z,983.9
2018-11-22T13:05:54.610Z,983.9
2018-11-22T13:06:56.115Z,983.9
2018-11-22T13:07:57.421Z,983.9
2018-11-22T13:09:00.976Z,983.9
2018-11-22T13:10:07.597Z,983.8
2018-11-22T13:11:16.353Z,983.9
2018-11-22T13:12:17.618Z,983.9
2018-11-22T13:13:18.952Z,983.9
2018-11-22T13:14:22.942Z,983.8
2018-11-22T13:15:24.358Z,983.8
2018-11-22T13:16:26.036Z,983.8
2018-11-22T13:17:27.377Z,983.9
2018-11-22T13:18:28.614Z,983.9
2018-11-22T13:19:30.043Z,983.6
2018-11-22T13:20:34.333Z,983.9
2018-11-22T13:21:42.101Z,983.9
2018-11-22T13:22:44.273Z,983.9
2018-11-22T13:23:45.539Z,983.9
2018-11-22T13:24:51.478Z,983.9
2018-11-22T13:25:52.784Z,983.9
2018-11-22T13:27:01.445Z,983.9
2018-11-22T13:28:03.688Z,983.7
2018-11-22T13:29:05.209Z,983.7
2018-11-22T13:30:09.536Z,983.9
2018-11-22T13:31:10.872Z,984